Flight Track Log - Related Links

Times and Time Zones

All times are in EST time to prevent confusion due to time zone crossing. See the AAY843 flight status page for this flight to view local times or setup timezone preferences in your user account.

Time Position Orientation Groundspeed Altitude Reporting Facility
EST Latitude Longitude Course Direction KTS MPH feet Rate Location/Type
Fri 07:32:30 PM 43.1086 -76.0897 78° East 138 159 1,300  Level Boston Center
Fri 07:32:36 PM 43.1094 -76.0842 78° East 136 157 1,700 2,250 Climbing Boston Center
Fri 07:33:42 PM 43.0867 -76.0158 115° Southeast 226 260 4,000 2,500 Climbing Boston Center
Fri 07:34:12 PM 43.0619 -76.0233 192° South 231 266 5,700 3,231 Climbing Boston Center
Fri 07:35:13 PM 43.0225 -76.0986 234° Southwest 246 283 8,900 2,115 Climbing Boston Center
Fri 07:36:14 PM 42.9803 -76.1736 232° Southwest 250 288 10,000 537 Climbing Boston Center
Fri 07:37:16 PM 42.9264 -76.2606 230° Southwest 303 349 10,000 1,220 Level Boston Center
Fri 07:38:17 PM 42.8650 -76.3522 228° Southwest 329 379 12,500 2,164 Climbing Boston Center
Fri 07:39:18 PM 42.7694 -76.4000 200° South 365 420 14,400 2,016 Climbing Boston Center
Fri 07:40:19 PM 42.6603 -76.4250 190° South 392 451 16,600 1,902 Climbing Boston Center
Fri 07:41:21 PM 42.5233 -76.4556 189° South 413 475 18,300 1,707 Climbing Boston Center
Fri 07:42:22 PM 42.4039 -76.4883 191° South 433 498 20,100 1,820 Climbing Boston Center
Fri 07:43:23 PM 42.2814 -76.5247 192° South 446 513 22,000 1,858 Climbing Boston Center
Fri 07:44:15 PM 42.1844 -76.5528 192° South 459 528 23,600 1,821 Climbing New York Center
Fri 07:45:15 PM 42.0619 -76.5867 192° South 453 521 25,400 1,650 Climbing New York Center
Fri 07:46:15 PM 41.9400 -76.6150 190° South 453 521 26,900 1,600 Climbing New York Center
Fri 07:47:15 PM 41.8175 -76.6489 192° South 453 521 28,600 1,550 Climbing New York Center
Fri 07:48:15 PM 41.6886 -76.6875 193° South 453 521 30,000 700 Climbing New York Center
Fri 07:49:15 PM 41.5808 -76.7139 190° South 441 507 30,000 600 Level New York Center
Fri 07:50:15 PM 41.4522 -76.7469 191° South 436 502 31,200 1,000 Climbing New York Center
Fri 07:51:15 PM 41.3342 -76.7750 190° South 436 502 32,000 400 Climbing New York Center
Fri 07:52:15 PM 41.2242 -76.8094 193° South 431 496 32,000  Level New York Center
Fri 07:53:15 PM 41.1075 -76.8458 193° South 431 496 32,000  Level New York Center
Fri 07:54:15 PM 40.9933 -76.8797 193° South 426 490 32,000  Level New York Center
Fri 07:55:15 PM 40.8794 -76.9081 191° South 421 484 32,000  Level New York Center
Fri 07:56:15 PM 40.7653 -76.9389 192° South 421 484 32,000  Level New York Center
Fri 07:57:15 PM 40.6511 -76.9694 191° South 421 484 32,000  Level New York Center
Fri 07:58:15 PM 40.5386 -77.0058 194° South 421 484 32,000  Level New York Center
Fri 07:59:15 PM 40.4225 -77.0364 191° South 421 484 32,000  Level New York Center
Fri 08:00:15 PM 40.3081 -77.0694 192° South 421 484 32,000  Level New York Center
Fri 08:01:16 PM 40.1969 -77.1192 199° South 421 484 32,000  Level New York Center
Fri 08:02:15 PM 40.1025 -77.1703 202° Southwest 421 484 32,000  Level New York Center
Fri 08:03:15 PM 39.9867 -77.2303 202° Southwest 416 479 32,000  Level New York Center
Fri 08:04:15 PM 39.8794 -77.2825 200° South 416 479 32,000  Level New York Center
Fri 08:06:33 PM 39.6475 -77.3864 199° South 413 475 32,000  Level Washington Center
Fri 08:07:33 PM 39.5400 -77.4400 201° Southwest 413 475 32,000  Level Washington Center
Fri 08:08:34 PM 39.4317 -77.4936 201° Southwest 413 475 32,000  Level Washington Center
Fri 08:09:39 PM 39.3003 -77.5544 200° South 414 476 32,000  Level Washington Center
Fri 08:10:39 PM 39.1911 -77.6042 199° South 417 480 32,000  Level Washington Center
Fri 08:11:43 PM 39.0731 -77.6608 200° South 416 479 32,000  Level Washington Center
Fri 08:12:44 PM 38.9647 -77.7153 201° Southwest 416 479 32,000  Level Washington Center
Fri 08:13:45 PM 38.8553 -77.7642 199° South 416 479 32,000  Level Washington Center
Fri 08:14:48 PM 38.7403 -77.8169 200° South 421 484 32,000  Level Washington Center
Fri 08:15:50 PM 38.6247 -77.8714 200° South 419 482 32,000  Level Washington Center
Fri 08:16:53 PM 38.5272 -77.9167 200° South 409 471 32,000  Level Washington Center
Fri 08:17:54 PM 38.4214 -77.9744 203° Southwest 410 472 32,000  Level Washington Center
Fri 08:18:58 PM 38.2975 -78.0539 207° Southwest 412 474 32,000  Level Washington Center
Fri 08:19:58 PM 38.1939 -78.1181 206° Southwest 412 474 32,000  Level Washington Center
Fri 08:21:00 PM 38.0894 -78.1789 205° Southwest 412 474 32,000  Level Washington Center
Fri 08:22:03 PM 37.9883 -78.2372 204° Southwest 416 479 32,000  Level Washington Center
Fri 08:23:04 PM 37.8683 -78.3089 205° Southwest 406 467 32,000  Level Washington Center
Fri 08:24:08 PM 37.7692 -78.3714 206° Southwest 406 467 32,000  Level Washington Center
Fri 08:25:08 PM 37.6719 -78.4306 206° Southwest 400 460 32,000  Level Washington Center
Fri 08:26:12 PM 37.5728 -78.4872 204° Southwest 400 460 32,000  Level Washington Center
Fri 08:27:13 PM 37.4528 -78.5569 205° Southwest 400 460 32,000  Level Washington Center
Fri 08:28:16 PM 37.3550 -78.6172 206° Southwest 400 460 32,000  Level Washington Center
Fri 08:29:17 PM 37.2561 -78.6781 206° Southwest 400 460 32,000  Level Washington Center
Fri 08:30:21 PM 37.1375 -78.7456 204° Southwest 400 460 32,000  Level Washington Center
Fri 08:31:22 PM 37.0375 -78.8025 204° Southwest 400 460 32,000  Level Washington Center
Fri 08:32:24 PM 36.9375 -78.8603 205° Southwest 400 460 32,000  Level Washington Center
Fri 08:33:25 PM 36.8378 -78.9208 206° Southwest 401 461 32,000  Level Washington Center
Fri 08:34:29 PM 36.7169 -78.9917 205° Southwest 403 464 32,000  Level Washington Center
Fri 08:35:30 PM 36.6017 -79.0383 198° South 427 491 32,000  Level Washington Center
Fri 08:36:33 PM 36.4908 -79.0678 192° South 414 476 32,000  Level Washington Center
Fri 08:37:34 PM 36.3800 -79.0950 191° South 409 471 32,000  Level Washington Center
Fri 08:38:35 PM 36.2686 -79.1253 192° South 409 471 32,000  Level Washington Center
Fri 08:39:40 PM 36.1592 -79.1608 195° South 409 471 32,000  Level Washington Center
Fri 08:40:42 PM 36.0475 -79.1942 194° South 413 475 32,000  Level Washington Center
Fri 08:41:43 PM 35.9133 -79.2294 192° South 413 475 32,000  Level Washington Center
Fri 08:42:44 PM 35.8014 -79.2589 192° South 413 475 32,000  Level Washington Center
Fri 08:43:48 PM 35.6897 -79.2903 193° South 413 475 32,000  Level Washington Center
Fri 08:44:48 PM 35.5592 -79.3286 193° South 420 483 32,000  Level Washington Center
Fri 08:45:52 PM 35.4458 -79.3594 192° South 419 482 32,000  Level Washington Center
Fri 08:46:52 PM 35.3242 -79.3906 192° South 417 480 32,000  Level Washington Center
Fri 08:47:56 PM 35.2153 -79.4200 192° South 417 480 32,000  Level Washington Center
Fri 08:48:57 PM 35.1017 -79.4517 193° South 418 481 32,000  Level Washington Center
Fri 08:50:00 PM 34.9889 -79.4836 193° South 418 481 32,000  Level Washington Center
Fri 08:51:00 PM 34.8756 -79.5133 192° South 418 481 32,000  Level Washington Center
Fri 08:52:05 PM 34.7381 -79.5500 192° South 422 486 32,000  Level Washington Center
Fri 08:53:06 PM 34.6244 -79.5806 192° South 421 484 32,000  Level Washington Center
Fri 08:54:09 PM 34.5106 -79.6128 193° South 421 484 32,000  Level Washington Center
Fri 08:55:10 PM 34.3947 -79.6428 192° South 422 486 32,000  Level Washington Center
Fri 08:56:25 PM 34.2561 -79.7397 210° Southwest 416 479 32,000  Level Jacksonville Center
Fri 08:57:25 PM 34.1642 -79.8208 216° Southwest 411 473 32,000  Level Jacksonville Center
Fri 08:58:25 PM 34.0700 -79.8992 215° Southwest 416 479 32,000  Level Jacksonville Center
Fri 08:59:25 PM 33.9736 -79.9703 211° Southwest 416 479 32,000  Level Jacksonville Center
Fri 09:00:25 PM 33.8753 -80.0436 212° Southwest 411 473 32,000  Level Jacksonville Center
Fri 09:01:25 PM 33.7808 -80.1192 214° Southwest 411 473 32,000  Level Jacksonville Center
Fri 09:02:25 PM 33.6844 -80.1944 213° Southwest 411 473 32,000  Level Jacksonville Center
Fri 09:03:25 PM 33.5900 -80.2697 214° Southwest 411 473 32,000  Level Jacksonville Center
Fri 09:04:25 PM 33.4914 -80.3422 212° Southwest 411 473 32,000  Level Jacksonville Center
Fri 09:05:25 PM 33.3947 -80.4172 213° Southwest 411 473 32,000  Level Jacksonville Center
Fri 09:06:25 PM 33.2981 -80.4944 214° Southwest 411 473 32,000  Level Jacksonville Center
Fri 09:07:25 PM 33.2014 -80.5664 212° Southwest 411 473 32,000  Level Jacksonville Center
Fri 09:08:25 PM 33.1025 -80.6411 212° Southwest 411 473 32,000  Level Jacksonville Center
Fri 09:09:25 PM 33.0036 -80.7153 212° Southwest 417 480 32,000  Level Jacksonville Center
Fri 09:10:25 PM 32.9047 -80.7894 212° Southwest 422 486 32,000  Level Jacksonville Center
Fri 09:11:25 PM 32.8058 -80.8658 213° Southwest 422 486 32,000  Level Jacksonville Center
Fri 09:12:25 PM 32.7089 -80.9397 213° Southwest 422 486 32,000  Level Jacksonville Center
Fri 09:13:25 PM 32.6097 -81.0158 213° Southwest 428 493 32,000  Level Jacksonville Center
Fri 09:14:25 PM 32.5169 -81.0842 212° Southwest 433 498 32,000  Level Jacksonville Center
Fri 09:15:25 PM 32.4033 -81.1678 212° Southwest 438 504 32,000  Level Jacksonville Center
Fri 09:16:25 PM 32.2978 -81.2458 212° Southwest 438 504 32,000  Level Jacksonville Center
Fri 09:17:25 PM 32.1964 -81.3214 212° Southwest 446 513 32,000  Level Jacksonville Center
Fri 09:18:25 PM 32.1033 -81.3917 213° Southwest 452 520 32,000  Level Jacksonville Center
Fri 09:19:25 PM 31.9936 -81.4742 213° Southwest 447 514 32,000  Level Jacksonville Center
Fri 09:20:25 PM 31.9006 -81.5442 213° Southwest 442 509 32,000  Level Jacksonville Center
Fri 09:21:25 PM 31.7886 -81.6242 211° Southwest 442 509 32,000  Level Jacksonville Center
Fri 09:22:25 PM 31.6764 -81.6867 205° Southwest 442 509 32,000  Level Jacksonville Center
Fri 09:23:25 PM 31.5661 -81.7222 195° South 457 526 32,000  Level Jacksonville Center
Fri 09:24:25 PM 31.4328 -81.7578 193° South 457 526 32,000  Level Jacksonville Center
Fri 09:25:25 PM 31.3244 -81.7933 196° South 451 519 32,000  Level Jacksonville Center
Fri 09:26:25 PM 31.2081 -81.8383 198° South 451 519 32,000  Level Jacksonville Center
Fri 09:27:25 PM 31.0872 -81.8786 196° South 451 519 32,000  Level Jacksonville Center
Fri 09:28:25 PM 30.9664 -81.9186 196° South 451 519 32,000  Level Jacksonville Center
Fri 09:29:25 PM 30.8436 -81.9536 194° South 457 526 32,000  Level Jacksonville Center
Fri 09:30:25 PM 30.7228 -81.9961 197° South 457 526 32,000  Level Jacksonville Center
Fri 09:31:25 PM 30.5872 -82.0431 197° South 457 526 32,000  Level Jacksonville Center
Fri 09:32:25 PM 30.4769 -82.0731 193° South 457 526 32,000  Level Jacksonville Center
Fri 09:33:25 PM 30.3539 -82.1103 195° South 452 520 32,000  Level Jacksonville Center
Fri 09:34:25 PM 30.2289 -82.1522 196° South 457 526 32,000  Level Jacksonville Center
Fri 09:35:25 PM 30.1039 -82.1914 195° South 457 526 32,000  Level Jacksonville Center
Fri 09:36:25 PM 29.9683 -82.2403 197° South 457 526 32,000 -150 Level Jacksonville Center
Fri 09:37:25 PM 29.8433 -82.2794 195° South 457 526 31,700 -1,250 Descending Jacksonville Center
Fri 09:38:25 PM 29.7203 -82.3161 195° South 457 526 29,500 -2,200 Descending Jacksonville Center
Fri 09:39:25 PM 29.6014 -82.3528 195° South 451 519 27,300 -1,850 Descending Jacksonville Center
Fri 09:40:25 PM 29.4742 -82.3631 184° South 457 526 25,800 -1,350 Descending Jacksonville Center
Fri 09:41:25 PM 29.3467 -82.3447 173° South 457 526 24,600 -1,800 Descending Jacksonville Center
Fri 09:42:25 PM 29.2339 -82.3167 168° South 443 510 22,200 -2,500 Descending Jacksonville Center
Fri 09:43:25 PM 29.1294 -82.3006 172° South 414 476 19,600 -2,250 Descending Jacksonville Center
Fri 09:44:25 PM 29.0231 -82.2919 176° South 393 452 17,700 -2,000 Descending Jacksonville Center
Fri 09:45:25 PM 28.9206 -82.2853 177° South 388 447 15,600 -2,100 Descending Jacksonville Center
Fri 09:46:25 PM 28.8203 -82.2717 173° South 377 434 13,500 -788 Descending Jacksonville Center
Fri 09:48:43 PM 28.5833 -82.2500 175° South 367 422 13,000 -303 Descending Tampa TRACON
Fri 09:49:43 PM 28.4833 -82.2500 180° South 363 418 12,500 -750 Descending Tampa TRACON
Fri 09:50:43 PM 28.3833 -82.2667 188° South 359 413 11,500 -1,000 Descending Tampa TRACON
Fri 09:51:37 PM 28.3000 -82.2833 190° South 357 411 10,600 -789 Descending Tampa TRACON
Fri 09:52:37 PM 28.2000 -82.3000 188° South 353 406 10,000 -286 Descending Tampa TRACON
Fri 09:53:43 PM 28.1000 -82.3167 188° South 352 405 10,000 -50 Level Tampa TRACON
Fri 09:54:37 PM 28.0000 -82.3333 188° South 331 381 9,900 -947 Descending Tampa TRACON
Fri 09:55:37 PM 27.9333 -82.3667 204° Southwest 289 333 8,200 -1,810 Descending Tampa TRACON
Fri 09:56:43 PM 27.8500 -82.4000 199° South 283 326 6,100 -1,950 Descending Tampa TRACON
Fri 09:57:37 PM 27.7833 -82.4333 204° Southwest 273 314 4,300 -1,500 Descending Tampa TRACON
Fri 09:58:43 PM 27.7500 -82.5000 241° Southwest 241 277 3,100 -850 Descending Tampa TRACON
Fri 09:59:37 PM 27.7667 -82.5500 291° West 230 265 2,600 -263 Descending Tampa TRACON
Fri 10:00:37 PM 27.7833 -82.6167 286° West 226 260 2,600 -149 Level Tampa TRACON
Fri 10:01:38 PM 27.8167 -82.6667 307° West 186 214 2,300 -800 Descending Tampa TRACON
Fri 10:02:37 PM 27.8500 -82.6833 336° Northwest 132 152 1,000 -1,008 Descending Tampa TRACON
Fri 10:03:37 PM 27.8833 -82.6833 360° North 122 140 300 -700 Descending Tampa TRACON
Fri 10:05:00 PM 27.9000 -82.6833 310° West  Level FlightAware Approximate
Fri 10:12:00 PM 27.9100 -82.6875 310° West  Level Estimated

Login

Don't have an account? Register now (free) for customized features, flight alerts, and more!